Time;durP1;ratioP1;P1;durP2;ratioP2;P2;SDS_P1;SDS_P2;PMS_P1;PMS_P2;Temp;Humidity;BMP_temperature;BMP_pressure;BME280_temperature;BME280_humidity;BME280_pressure;Samples;Min_cycle;Max_cycle;Signal;HPM_P1;HPM_P2
2021/01/19 00:02:12;;;;;;;6.00;3.00;;;;;;;-0.24;72.72;96963.41;5088939;28;20044;-69
2021/01/19 00:04:38;;;;;;;6.47;2.90;;;;;;;-0.17;72.46;96961.41;5070300;28;20051;-70
2021/01/19 00:07:04;;;;;;;5.30;2.60;;;;;;;-0.35;72.83;96960.50;5069654;28;20053;-70
2021/01/19 00:09:31;;;;;;;4.25;2.42;;;;;;;-0.38;72.89;96950.25;5077020;28;20043;-69
2021/01/19 00:11:57;;;;;;;6.18;2.92;;;;;;;-0.41;72.79;96950.72;5089875;28;20044;-69
2021/01/19 00:14:23;;;;;;;4.78;2.90;;;;;;;-0.56;73.20;96953.06;5090296;28;20048;-70
2021/01/19 00:16:49;;;;;;;6.65;3.30;;;;;;;-0.54;73.35;96948.28;5090090;28;20040;-69
2021/01/19 00:19:15;;;;;;;4.85;2.85;;;;;;;-0.61;73.67;96950.25;5090670;28;20609;-69
2021/01/19 00:21:41;;;;;;;7.05;3.20;;;;;;;-0.66;73.86;96945.59;5089858;28;20059;-70
2021/01/19 00:24:07;;;;;;;7.28;3.42;;;;;;;-0.69;74.19;96942.56;5090182;28;20457;-69
2021/01/19 00:26:34;;;;;;;5.85;3.03;;;;;;;-0.73;74.36;96933.38;5090183;28;20491;-70
2021/01/19 00:29:01;;;;;;;7.90;2.97;;;;;;;-0.63;74.12;96930.94;5090427;28;20089;-70
2021/01/19 00:31:27;;;;;;;6.68;3.33;;;;;;;-0.65;74.03;96922.34;5090104;28;20060;-70
2021/01/19 00:33:53;;;;;;;7.38;3.22;;;;;;;-0.60;73.90;96919.78;5074199;28;20078;-70
2021/01/19 00:36:19;;;;;;;6.43;3.20;;;;;;;-0.68;74.01;96922.81;5069805;28;20090;-70
2021/01/19 00:38:45;;;;;;;6.30;3.00;;;;;;;-0.80;74.14;96920.94;5069503;28;20118;-70
2021/01/19 00:41:11;;;;;;;4.60;2.58;;;;;;;-0.76;74.01;96931.19;5090279;28;20127;-70
2021/01/19 00:43:38;;;;;;;5.53;3.10;;;;;;;-0.83;74.09;96921.41;5089661;28;20044;-70
2021/01/19 00:46:04;;;;;;;4.82;2.60;;;;;;;-0.84;74.25;96924.31;5090014;28;20055;-70
2021/01/19 00:48:30;;;;;;;5.85;3.20;;;;;;;-0.94;74.37;96916.88;5091105;28;20452;-70
2021/01/19 00:50:57;;;;;;;6.55;2.88;;;;;;;-0.95;74.44;96917.09;5096968;28;20135;-70
2021/01/19 00:53:23;;;;;;;7.00;3.03;;;;;;;-0.99;74.87;96927.47;5096392;28;20055;-69
2021/01/19 00:55:49;;;;;;;6.20;2.95;;;;;;;-0.91;74.51;96921.75;5096692;28;20044;-69
2021/01/19 00:58:15;;;;;;;8.23;2.70;;;;;;;-0.86;74.27;96910.38;5096616;28;20462;-70
2021/01/19 01:00:42;;;;;;;5.13;2.67;;;;;;;-0.97;74.64;96903.16;5096275;28;20135;-69
2021/01/19 01:03:08;;;;;;;6.10;3.03;;;;;;;-0.92;74.28;96906.75;5087264;28;20056;-70
2021/01/19 01:05:34;;;;;;;4.50;2.92;;;;;;;-0.95;74.37;96912.56;5075843;28;20549;-70
2021/01/19 01:08:02;;;;;;;5.55;2.58;;;;;;;-0.93;74.15;96915.84;5077132;28;20388;-70
2021/01/19 01:10:28;;;;;;;6.38;3.15;;;;;;;-1.00;74.11;96908.94;5089774;28;20040;-70
2021/01/19 01:12:54;;;;;;;5.70;3.00;;;;;;;-1.05;74.19;96923.00;5097067;28;20070;-70
2021/01/19 01:15:29;;;;;;;5.60;3.03;;;;;;;-1.01;74.40;96918.84;5095912;28;20070;-70
2021/01/19 01:17:56;;;;;;;5.68;2.75;;;;;;;-0.89;74.03;96919.69;5096511;28;20052;-70
2021/01/19 01:20:22;;;;;;;5.90;2.70;;;;;;;-0.84;73.78;96919.78;5096495;28;20052;-70
2021/01/19 01:22:48;;;;;;;4.90;2.70;;;;;;;-0.86;73.35;96910.38;5096218;28;20124;-69
2021/01/19 01:25:15;;;;;;;5.22;2.90;;;;;;;-0.79;73.28;96916.41;5096578;28;20047;-70
2021/01/19 01:27:43;;;;;;;6.65;2.85;;;;;;;-1.00;73.57;96927.66;5095717;28;20082;-70
2021/01/19 01:30:11;;;;;;;6.95;3.10;;;;;;;-1.05;73.83;96912.31;5096713;28;20040;-69
2021/01/19 01:32:41;;;;;;;6.75;3.00;;;;;;;-0.99;73.50;96919.44;5090713;28;20049;-70
2021/01/19 01:35:10;;;;;;;6.88;3.33;;;;;;;-0.92;73.57;96920.13;5076354;28;20718;-70
2021/01/19 01:37:43;;;;;;;6.32;3.42;;;;;;;-1.02;73.48;96914.53;5076921;28;20040;-70
2021/01/19 01:40:10;;;;;;;5.68;2.70;;;;;;;-1.09;73.71;96917.31;5087012;28;20048;-69
2021/01/19 01:42:36;;;;;;;5.85;3.22;;;;;;;-1.10;73.94;96920.22;5096647;28;20517;-69
2021/01/19 01:45:03;;;;;;;7.53;3.25;;;;;;;-1.24;74.41;96918.81;5095557;28;20043;-69
2021/01/19 01:47:29;;;;;;;7.82;3.20;;;;;;;-1.28;74.71;96901.59;5097003;28;20047;-70
2021/01/19 01:49:55;;;;;;;8.35;3.45;;;;;;;-1.25;74.84;96912.66;5095716;28;20052;-70
2021/01/19 01:52:24;;;;;;;7.75;3.90;;;;;;;-1.13;74.26;96912.66;5096422;28;20052;-70
2021/01/19 01:54:51;;;;;;;5.95;3.28;;;;;;;-1.10;74.32;96906.84;5095597;28;20055;-69
2021/01/19 01:57:17;;;;;;;6.40;3.40;;;;;;;-1.11;74.17;96900.69;5096582;28;20047;-70
2021/01/19 01:59:47;;;;;;;10.52;3.75;;;;;;;-1.08;74.14;96905.59;5096227;28;20044;-70
2021/01/19 02:02:14;;;;;;;6.10;3.30;;;;;;;-1.01;74.00;96902.78;5090913;28;20398;-70
2021/01/19 02:04:39;;;;;;;7.53;3.70;;;;;;;-1.03;74.23;96902.22;5093100;28;20117;-69
2021/01/19 02:07:13;;;;;;;6.63;3.60;;;;;;;-0.99;74.02;96895.38;5092194;28;20605;-70
2021/01/19 02:09:42;;;;;;;;;;;;;;;-0.93;73.64;96898.97;5093794;28;20044;-70
2021/01/19 02:12:15;;;;;;;7.47;3.22;;;;;;;-0.99;73.87;96895.38;5091711;28;19920;-70
2021/01/19 02:14:46;;;;;;;8.25;3.97;;;;;;;-1.05;73.98;96885.59;5093617;28;20482;-70
2021/01/19 02:17:24;;;;;;;8.52;3.67;;;;;;;-0.95;73.90;96890.34;5091907;28;20047;-70
2021/01/19 02:20:26;;;;;;;4.03;2.88;;;;;;;-0.97;73.76;96885.25;5092832;28;20055;-70
2021/01/19 02:23:05;;;;;;;7.35;3.83;;;;;;;-1.02;73.63;96881.66;5028609;28;20052;-70
2021/01/19 02:25:52;;;;;;;6.72;3.30;;;;;;;-0.94;73.83;96887.47;5071560;28;20483;-70
2021/01/19 02:28:29;;;;;;;6.93;3.70;;;;;;;-1.05;73.73;96881.03;5052212;28;20708;-70
2021/01/19 02:31:12;;;;;;;5.97;3.70;;;;;;;-0.94;73.49;96884.81;5051840;28;20064;-70
2021/01/19 02:33:48;;;;;;;9.93;5.03;;;;;;;-0.92;73.21;96871.19;5058188;28;20044;-70
2021/01/19 02:36:20;;;;;;;7.72;3.83;;;;;;;-1.08;73.49;96881.53;5052124;28;20045;-69
2021/01/19 02:38:55;;;;;;;8.23;3.50;;;;;;;-1.12;73.51;96876.88;5051615;28;20086;-70
2021/01/19 02:41:22;;;;;;;6.88;3.70;;;;;;;-1.09;73.41;96884.44;5052238;28;20049;-70
2021/01/19 02:43:58;;;;;;;10.90;3.67;;;;;;;-1.05;73.54;96885.59;5051606;28;20049;-70
2021/01/19 02:46:25;;;;;;;6.88;3.40;;;;;;;-0.96;73.21;96873.50;5051771;28;20684;-69
2021/01/19 02:48:52;;;;;;;6.15;3.50;;;;;;;-0.88;72.73;96873.19;5051625;28;20045;-70
2021/01/19 02:51:19;;;;;;;10.32;3.67;;;;;;;-0.82;72.62;96864.22;5051121;28;20053;-70
2021/01/19 02:53:47;;;;;;;6.63;3.55;;;;;;;-0.86;72.17;96868.41;5052086;28;20097;-70
2021/01/19 02:56:21;;;;;;;7.93;3.55;;;;;;;-0.97;72.19;96866.53;5050912;28;20056;-70
2021/01/19 02:59:02;;;;;;;8.52;3.90;;;;;;;-0.97;72.10;96857.72;5052483;28;20048;-70
2021/01/19 03:01:35;;;;;;;7.15;3.47;;;;;;;-0.94;71.72;96851.88;5051097;28;20041;-70
2021/01/19 03:04:03;;;;;;;9.77;3.72;;;;;;;-1.00;71.94;96853.63;5053199;28;20580;-70
2021/01/19 03:06:31;;;;;;;6.68;4.05;;;;;;;-1.14;72.25;96858.41;5051310;28;20055;-70
2021/01/19 03:08:59;;;;;;;9.55;4.05;;;;;;;-1.06;72.28;96857.22;5053009;28;20045;-70
2021/01/19 03:11:26;;;;;;;8.38;3.80;;;;;;;-0.96;71.98;96856.66;5090985;28;20047;-70
2021/01/19 03:13:52;;;;;;;7.65;4.15;;;;;;;-1.02;71.59;96853.06;5091234;28;20068;-70
2021/01/19 03:16:21;;;;;;;8.35;4.25;;;;;;;-1.12;72.04;96858.97;5091536;28;20051;-70
2021/01/19 03:18:49;;;;;;;9.63;3.83;;;;;;;-1.10;71.73;96856.06;5090974;28;20525;-70
2021/01/19 03:21:16;;;;;;;8.40;4.35;;;;;;;-1.20;72.06;96847.81;5091633;28;20048;-70
2021/01/19 03:23:42;;;;;;;9.23;4.10;;;;;;;-1.22;72.15;96848.03;5090997;28;20074;-70
2021/01/19 03:26:08;;;;;;;6.93;4.15;;;;;;;-1.24;72.30;96852.00;5096185;28;20052;-70
2021/01/19 03:28:35;;;;;;;8.25;4.38;;;;;;;-1.30;72.51;96850.25;5111508;28;20039;-69
2021/01/19 03:31:01;;;;;;;6.63;3.95;;;;;;;-1.29;72.71;96857.22;5097030;28;20044;-69
2021/01/19 03:33:28;;;;;;;8.52;4.10;;;;;;;-1.28;72.79;96848.16;5090986;28;20047;-70
2021/01/19 03:35:54;;;;;;;8.20;3.58;;;;;;;-1.21;72.64;96851.53;5090884;28;20043;-70
2021/01/19 03:38:21;;;;;;;10.40;3.70;;;;;;;-1.28;72.65;96854.31;5091014;28;20051;-69
2021/01/19 03:40:47;;;;;;;6.72;4.05;;;;;;;-1.29;72.80;96854.56;5090564;28;20040;-69
2021/01/19 03:43:13;;;;;;;9.57;4.00;;;;;;;-1.32;73.29;96837.91;5091133;28;20048;-70
2021/01/19 03:45:39;;;;;;;8.68;4.05;;;;;;;-1.44;74.36;96837.09;5090645;28;20517;-70
2021/01/19 03:48:06;;;;;;;8.23;4.22;;;;;;;-1.53;75.08;96846.47;5091106;28;20055;-70
2021/01/19 03:50:32;;;;;;;8.05;4.32;;;;;;;-1.61;75.59;96841.50;5090515;28;20499;-70
2021/01/19 03:52:58;;;;;;;8.52;3.80;;;;;;;-1.51;75.48;96836.41;5090978;28;20048;-70
2021/01/19 03:55:25;;;;;;;7.70;3.55;;;;;;;-1.43;75.24;96838.72;5090333;28;20048;-69
2021/01/19 03:57:51;;;;;;;8.05;3.85;;;;;;;-1.49;75.36;96836.97;5090761;28;20126;-70
2021/01/19 04:00:17;;;;;;;6.75;3.42;;;;;;;-1.44;75.38;96837.09;5090158;28;20051;-69
2021/01/19 04:02:43;;;;;;;7.40;3.85;;;;;;;-1.33;75.10;96830.97;5070200;28;20045;-71
2021/01/19 04:05:10;;;;;;;6.47;3.30;;;;;;;-1.28;74.78;96827.59;5070581;28;20392;-70
2021/01/19 04:07:39;;;;;;;6.93;3.78;;;;;;;-1.24;74.71;96835.97;5069804;28;20048;-70
2021/01/19 04:10:07;;;;;;;6.80;3.67;;;;;;;-1.22;74.51;96828.53;5081550;28;20506;-70
2021/01/19 04:12:34;;;;;;;8.50;3.78;;;;;;;-1.21;74.47;96827.47;5089857;28;20040;-70
2021/01/19 04:15:00;;;;;;;6.55;3.72;;;;;;;-1.19;74.40;96831.56;5091040;28;20044;-70
2021/01/19 04:17:26;;;;;;;8.68;4.00;;;;;;;-1.16;74.17;96823.06;5089965;28;20098;-70
2021/01/19 04:19:52;;;;;;;8.48;4.38;;;;;;;-1.17;74.35;96824.13;5090591;28;20093;-70
2021/01/19 04:22:17;;;;;;;7.38;3.67;;;;;;;-1.38;75.04;96822.00;5089976;28;20135;-70
2021/01/19 04:24:43;;;;;;;9.35;4.20;;;;;;;-1.45;75.53;96816.78;5089599;28;20044;-70
2021/01/19 04:27:09;;;;;;;6.22;3.40;;;;;;;-1.37;75.34;96812.94;5090143;28;20105;-70
2021/01/19 04:29:36;;;;;;;10.30;4.03;;;;;;;-1.33;75.12;96809.59;5089927;28;20502;-70
2021/01/19 04:32:02;;;;;;;8.32;4.00;;;;;;;-1.36;75.07;96815.41;5075659;28;20095;-70
2021/01/19 04:34:28;;;;;;;7.50;4.20;;;;;;;-1.33;74.81;96817.59;5069675;28;20056;-69
2021/01/19 04:36:54;;;;;;;8.30;4.20;;;;;;;-1.50;74.89;96813.97;5070803;28;20558;-70
2021/01/19 04:39:20;;;;;;;9.27;4.00;;;;;;;-1.50;75.45;96802.50;5073684;28;20151;-70
2021/01/19 04:41:47;;;;;;;7.90;4.05;;;;;;;-1.52;75.01;96805.38;5090441;28;20455;-70
2021/01/19 04:44:15;;;;;;;7.28;4.00;;;;;;;-1.66;75.47;96799.44;5089500;28;20495;-70
2021/01/19 04:46:43;;;;;;;10.38;4.45;;;;;;;-1.65;75.64;96800.25;5090111;28;20048;-70
2021/01/19 04:49:11;;;;;;;7.85;4.38;;;;;;;-1.86;76.03;96809.59;5089875;28;20070;-70
2021/01/19 04:51:39;;;;;;;8.43;4.25;;;;;;;-2.01;76.56;96806.53;5089675;28;20097;-69
2021/01/19 04:54:07;;;;;;;10.07;4.22;;;;;;;-2.01;76.75;96796.69;5090233;28;20052;-70
2021/01/19 04:56:38;;;;;;;8.63;3.80;;;;;;;-2.09;76.97;96794.31;5089542;28;20047;-70
2021/01/19 04:59:11;;;;;;;10.43;4.78;;;;;;;-2.22;77.36;96800.66;5090309;28;20539;-70
2021/01/19 05:02:10;;;;;;;8.27;4.43;;;;;;;-2.32;77.83;96799.56;5088838;28;20097;-70
2021/01/19 05:04:48;;;;;;;5.65;3.53;;;;;;;-2.26;77.81;96798.66;5089694;28;20047;-70
2021/01/19 05:07:31;;;;;;;13.68;4.78;;;;;;;-2.21;77.41;96785.47;5090038;28;20131;-70
2021/01/19 05:10:05;;;;;;;6.68;3.47;;;;;;;-2.07;77.19;96778.91;5089535;28;20048;-70
2021/01/19 05:12:38;;;;;;;8.27;3.72;;;;;;;-1.97;76.80;96773.84;5090067;28;20043;-69
2021/01/19 05:15:06;;;;;;;;;;;;;;;-1.89;76.49;96773.50;5089553;28;20495;-70
2021/01/19 05:17:33;;;;;;;7.68;3.83;;;;;;;-2.08;76.64;96774.63;5089972;28;19920;-69
2021/01/19 05:20:00;;;;;;;8.73;3.95;;;;;;;-2.09;76.89;96762.28;5089856;28;20040;-70
2021/01/19 05:22:26;;;;;;;7.72;3.60;;;;;;;-2.03;76.74;96756.06;5089749;28;20094;-69
2021/01/19 05:24:52;;;;;;;7.80;3.70;;;;;;;-2.02;76.83;96755.03;5090393;28;20044;-70
2021/01/19 05:27:19;;;;;;;5.95;3.75;;;;;;;-2.02;76.66;96759.56;5088585;28;20044;-70
2021/01/19 05:29:45;;;;;;;6.63;4.22;;;;;;;-2.13;76.73;96750.47;5090451;28;20091;-70
2021/01/19 05:32:11;;;;;;;7.70;3.60;;;;;;;-2.05;76.58;96757.31;5087391;28;20044;-70
2021/01/19 05:34:38;;;;;;;10.23;3.88;;;;;;;-2.07;76.53;96749.56;5090681;28;20051;-70
2021/01/19 05:37:04;;;;;;;8.23;4.05;;;;;;;-2.10;76.46;96742.00;5092679;28;20047;-70
2021/01/19 05:39:30;;;;;;;9.98;4.38;;;;;;;-2.19;76.64;96746.88;5093833;28;20048;-69
2021/01/19 05:41:57;;;;;;;8.00;4.53;;;;;;;-2.17;76.73;96749.28;5093232;28;20052;-70
2021/01/19 05:44:25;;;;;;;8.70;4.18;;;;;;;-2.16;76.37;96742.91;5093016;28;20055;-70
2021/01/19 05:46:59;;;;;;;7.82;4.25;;;;;;;-2.12;76.36;96741.44;5093416;28;20120;-70
2021/01/19 05:49:27;;;;;;;10.57;4.72;;;;;;;-2.05;76.11;96731.47;5092432;28;20048;-70
2021/01/19 05:51:58;;;;;;;8.48;4.13;;;;;;;-2.00;75.82;96734.25;5093704;28;20055;-70
2021/01/19 05:54:27;;;;;;;6.80;4.07;;;;;;;-1.95;75.81;96737.03;5092437;28;20127;-70
2021/01/19 05:57:02;;;;;;;8.93;4.28;;;;;;;-2.02;75.55;96736.34;5093698;28;20055;-70
2021/01/19 05:59:47;;;;;;;11.25;4.53;;;;;;;-2.05;75.85;96734.13;5092120;28;20044;-70
2021/01/19 06:02:15;;;;;;;8.60;4.43;;;;;;;-1.99;75.86;96735.88;5075944;28;20098;-70
2021/01/19 06:04:43;;;;;;;9.60;4.10;;;;;;;-2.06;76.04;96739.69;5071256;28;20059;-69
2021/01/19 06:07:11;;;;;;;9.25;4.47;;;;;;;-2.05;75.74;96736.78;5071635;28;20048;-70
2021/01/19 06:09:39;;;;;;;7.93;4.20;;;;;;;-2.04;75.79;96737.59;5080441;28;20051;-70
2021/01/19 06:12:06;;;;;;;9.32;4.85;;;;;;;-1.98;75.55;96732.19;5091679;28;20040;-69
2021/01/19 06:14:33;;;;;;;8.07;3.83;;;;;;;-2.00;75.42;96733.44;5093344;28;20040;-70
2021/01/19 06:17:11;;;;;;;9.73;4.43;;;;;;;-1.90;75.51;96733.69;5092208;28;20426;-70
2021/01/19 06:19:38;;;;;;;6.25;3.88;;;;;;;-1.77;75.26;96738.03;5072547;28;20033;-70
2021/01/19 06:22:09;;;;;;;7.68;4.20;;;;;;;-1.67;74.98;96733.75;5071751;28;20053;-70
2021/01/19 06:24:37;;;;;;;8.45;4.00;;;;;;;-1.58;74.66;96718.97;5072358;28;20044;-70
2021/01/19 06:27:05;;;;;;;8.60;4.20;;;;;;;-1.51;74.19;96716.22;5072186;28;20482;-70
2021/01/19 06:29:32;;;;;;;7.55;4.13;;;;;;;-1.44;74.25;96719.56;5071327;28;20515;-70
2021/01/19 06:32:01;;;;;;;8.65;4.10;;;;;;;-1.39;74.09;96703.66;5085640;28;20051;-70
2021/01/19 06:34:28;;;;;;;7.75;4.05;;;;;;;-1.35;74.03;96704.00;5071481;28;20041;-70
2021/01/19 06:36:55;;;;;;;11.05;4.30;;;;;;;-1.35;74.13;96691.47;5072842;28;20098;-70
2021/01/19 06:39:37;;;;;;;7.63;4.18;;;;;;;-1.32;74.08;96682.97;5071055;28;20048;-70
2021/01/19 06:42:12;;;;;;;8.25;4.05;;;;;;;-1.29;73.94;96680.88;5071577;28;20048;-70
2021/01/19 06:44:44;;;;;;;8.27;4.55;;;;;;;-1.27;73.71;96684.94;5072260;28;20044;-70
2021/01/19 06:47:11;;;;;;;9.30;3.70;;;;;;;-1.25;73.44;96682.88;5070219;28;20045;-70
2021/01/19 06:49:38;;;;;;;9.57;4.47;;;;;;;-1.22;73.33;96681.56;5072562;28;20041;-70
2021/01/19 06:52:07;;;;;;;10.40;5.38;;;;;;;-1.24;73.35;96670.31;5070682;28;20044;-69
2021/01/19 06:55:05;;;;;;;12.32;5.20;;;;;;;-1.28;73.40;96675.31;5072642;28;20048;-70
2021/01/19 06:57:50;;;;;;;11.48;4.93;;;;;;;-1.28;73.32;96674.50;5091965;28;20056;-70
2021/01/19 07:00:21;;;;;;;9.95;5.50;;;;;;;-1.29;73.07;96675.53;5077275;28;20113;-70
2021/01/19 07:02:48;;;;;;;8.85;4.57;;;;;;;-1.34;72.93;96669.03;5072406;28;20048;-70
2021/01/19 07:05:16;;;;;;;9.40;4.78;;;;;;;-1.37;72.81;96669.50;5070368;28;20052;-69
2021/01/19 07:07:43;;;;;;;7.85;4.40;;;;;;;-1.40;72.54;96669.97;5072434;28;20048;-69
2021/01/19 07:10:15;;;;;;;8.95;4.38;;;;;;;-1.39;72.38;96670.78;5082101;28;20068;-70
2021/01/19 07:13:06;;;;;;;11.35;5.03;;;;;;;-1.39;72.22;96663.59;5092224;28;20441;-70
2021/01/19 07:16:11;;;;;;;11.77;4.80;;;;;;;-1.42;72.15;96656.03;5091783;28;20133;-69
2021/01/19 07:18:45;;;;;;;10.90;4.97;;;;;;;-1.43;72.16;96664.28;5090925;28;20040;-70
2021/01/19 07:21:13;;;;;;;7.35;4.20;;;;;;;-1.44;72.45;96654.66;5091716;28;20052;-69
2021/01/19 07:24:16;;;;;;;8.55;4.57;;;;;;;-1.46;72.47;96649.56;5091190;28;20043;-70
2021/01/19 07:26:44;;;;;;;9.38;4.88;;;;;;;-1.52;72.40;96639.78;5091244;28;20123;-70
2021/01/19 07:29:10;;;;;;;8.38;4.63;;;;;;;-1.57;72.37;96645.00;5091218;28;20048;-70
2021/01/19 07:31:37;;;;;;;7.53;3.97;;;;;;;-1.56;72.27;96630.63;5079715;28;20048;-70
2021/01/19 07:34:05;;;;;;;7.53;3.83;;;;;;;-1.56;71.91;96630.63;5071241;28;20053;-70
2021/01/19 07:36:32;;;;;;;9.55;4.32;;;;;;;-1.57;71.80;96631.66;5070432;28;20131;-70
2021/01/19 07:38:58;;;;;;;6.15;3.55;;;;;;;-1.51;71.88;96627.25;5073198;28;20050;-70
2021/01/19 07:41:26;;;;;;;7.43;3.80;;;;;;;-1.46;71.76;96625.53;5090227;28;20043;-69
2021/01/19 07:43:54;;;;;;;5.80;3.47;;;;;;;-1.41;71.61;96620.28;5091555;28;20174;-70
2021/01/19 07:46:22;;;;;;;5.85;3.20;;;;;;;-1.36;71.38;96620.38;5090585;28;20533;-70
2021/01/19 07:48:59;;;;;;;6.80;3.30;;;;;;;-1.32;71.10;96613.50;5090912;28;20116;-70
2021/01/19 07:51:25;;;;;;;6.28;2.80;;;;;;;-1.26;70.56;96610.94;5090780;28;20044;-70
2021/01/19 07:53:53;;;;;;;5.88;3.13;;;;;;;-1.23;69.35;96615.81;5090351;28;20052;-69
2021/01/19 07:56:25;;;;;;;4.10;2.38;;;;;;;-1.23;68.33;96613.16;5091154;28;20044;-69
2021/01/19 07:58:51;;;;;;;5.07;2.47;;;;;;;-1.21;68.29;96603.84;5089324;28;20055;-70
2021/01/19 08:01:25;;;;;;;4.55;2.17;;;;;;;-1.12;68.53;96599.75;5090124;28;20048;-69
2021/01/19 08:03:51;;;;;;;5.88;2.90;;;;;;;-1.03;68.72;96600.19;5090573;28;20051;-70
2021/01/19 08:06:17;;;;;;;3.72;2.17;;;;;;;-0.92;68.77;96591.31;5090464;28;20051;-69
2021/01/19 08:08:44;;;;;;;3.28;1.90;;;;;;;-0.81;68.66;96595.78;5090732;28;20060;-70
2021/01/19 08:11:19;;;;;;;4.15;2.20;;;;;;;-0.69;67.57;96595.72;5089904;28;20044;-70
2021/01/19 08:13:56;;;;;;;5.07;2.17;;;;;;;-0.76;65.74;96591.59;5091185;28;20074;-70
2021/01/19 08:16:28;;;;;;;3.60;2.42;;;;;;;-0.58;65.81;96586.81;5089467;28;20503;-70
2021/01/19 08:19:04;;;;;;;4.45;2.40;;;;;;;-0.42;65.24;96579.84;5091207;28;20048;-69
2021/01/19 08:21:36;;;;;;;4.88;2.08;;;;;;;-0.26;64.68;96578.28;5089849;28;20047;-69
2021/01/19 08:24:04;;;;;;;4.77;2.00;;;;;;;0.03;64.90;96584.31;5090201;28;20040;-70
2021/01/19 08:26:31;;;;;;;3.55;2.17;;;;;;;0.27;63.28;96586.81;5090133;28;20277;-70
2021/01/19 08:28:57;;;;;;;4.47;2.15;;;;;;;0.55;62.14;96583.97;5090244;28;20482;-70
2021/01/19 08:31:28;;;;;;;4.05;2.17;;;;;;;0.85;62.15;96578.19;5080681;28;20048;-70
2021/01/19 08:33:59;;;;;;;4.57;2.30;;;;;;;0.97;60.45;96578.03;5069754;28;20094;-69
2021/01/19 08:36:26;;;;;;;3.83;2.17;;;;;;;0.83;60.11;96584.84;5070311;28;20048;-70
2021/01/19 08:38:55;;;;;;;3.78;2.40;;;;;;;0.80;60.66;96571.94;5070256;28;20041;-70
2021/01/19 08:41:21;;;;;;;4.30;2.65;;;;;;;0.80;61.04;96563.91;5090205;28;20097;-70
2021/01/19 08:43:58;;;;;;;3.58;2.25;;;;;;;0.82;61.75;96562.59;5089940;28;20052;-70
2021/01/19 08:46:25;;;;;;;6.10;2.40;;;;;;;0.84;61.39;96559.66;5089779;28;20068;-70
2021/01/19 08:48:53;;;;;;;3.50;2.03;;;;;;;0.84;61.03;96543.59;5090224;28;20052;-70
2021/01/19 08:51:23;;;;;;;4.38;2.28;;;;;;;0.85;61.32;96556.72;5089350;28;20048;-69
2021/01/19 08:53:50;;;;;;;3.90;2.28;;;;;;;0.87;61.47;96548.44;5090487;28;20533;-69
2021/01/19 08:56:20;;;;;;;5.95;3.35;;;;;;;0.92;61.43;96556.53;5089091;28;20055;-69
2021/01/19 08:58:46;;;;;;;3.78;2.40;;;;;;;0.88;61.59;96550.03;5090709;28;20044;-70
2021/01/19 09:01:13;;;;;;;3.30;2.05;;;;;;;0.78;61.26;96546.22;5087995;28;20070;-70
2021/01/19 09:03:39;;;;;;;5.50;2.65;;;;;;;0.69;61.83;96545.03;5090633;28;20048;-70
2021/01/19 09:06:07;;;;;;;7.07;2.50;;;;;;;0.60;61.63;96551.88;5089054;28;20052;-70
2021/01/19 09:08:35;;;;;;;4.75;2.63;;;;;;;0.58;62.04;96545.97;5090099;28;20044;-69
2021/01/19 09:11:04;;;;;;;3.97;2.42;;;;;;;0.63;62.25;96542.53;5092747;28;20043;-70
2021/01/19 09:13:32;;;;;;;4.85;2.08;;;;;;;0.57;61.80;96549.69;5093662;28;20063;-70
2021/01/19 09:15:58;;;;;;;6.78;2.22;;;;;;;0.36;62.18;96542.44;5094343;28;20048;-70
2021/01/19 09:18:24;;;;;;;4.43;2.17;;;;;;;0.36;62.89;96553.97;5093027;28;20066;-70
2021/01/19 09:21:01;;;;;;;3.92;2.22;;;;;;;0.33;63.06;96542.97;5094379;28;20652;-70
2021/01/19 09:23:35;;;;;;;3.70;2.05;;;;;;;0.48;62.87;96545.84;5072802;28;20376;-70
2021/01/19 09:26:07;;;;;;;4.32;2.35;;;;;;;0.55;62.48;96549.13;5073775;28;20040;-70
2021/01/19 09:28:35;;;;;;;3.72;2.20;;;;;;;0.66;63.13;96547.38;5073320;28;20395;-70
2021/01/19 09:31:18;;;;;;;3.67;1.92;;;;;;;0.78;63.16;96535.47;5073043;28;20044;-70
2021/01/19 09:33:46;;;;;;;3.42;2.03;;;;;;;0.82;60.81;96535.78;5073553;28;20128;-70
2021/01/19 09:36:13;;;;;;;2.65;1.73;;;;;;;0.84;59.62;96533.66;5072364;28;20051;-69
2021/01/19 09:38:41;;;;;;;4.95;2.20;;;;;;;0.96;60.14;96522.78;5074104;28;20048;-70
2021/01/19 09:41:08;;;;;;;4.63;2.30;;;;;;;1.12;59.13;96527.25;5073106;28;20092;-70
2021/01/19 09:43:36;;;;;;;4.00;1.67;;;;;;;1.32;58.77;96515.09;5073849;28;20052;-70
2021/01/19 09:46:05;;;;;;;3.10;1.73;;;;;;;1.53;58.41;96504.28;5072343;28;20135;-70
2021/01/19 09:48:34;;;;;;;4.18;1.95;;;;;;;1.73;58.26;96503.63;5073191;28;20102;-70
2021/01/19 09:51:01;;;;;;;3.80;1.92;;;;;;;1.86;57.05;96502.34;5072965;28;20045;-69
2021/01/19 09:53:29;;;;;;;3.97;2.08;;;;;;;2.00;56.56;96500.03;5080886;28;20043;-70
2021/01/19 09:55:57;;;;;;;4.07;1.85;;;;;;;2.15;56.09;96489.38;5073243;28;20057;-69
2021/01/19 09:58:24;;;;;;;5.18;1.83;;;;;;;2.09;55.78;96493.91;5071896;28;20056;-70
2021/01/19 10:00:51;;;;;;;4.25;2.28;;;;;;;2.19;54.50;96485.06;5068413;28;20120;-70
2021/01/19 10:03:20;;;;;;;5.35;1.83;;;;;;;2.24;54.14;96465.47;5051880;28;20053;-70
2021/01/19 10:06:01;;;;;;;4.45;1.90;;;;;;;2.37;54.35;96458.84;5053478;28;20064;-70
2021/01/19 10:08:27;;;;;;;4.38;1.70;;;;;;;2.34;53.47;96460.97;5072367;28;20041;-70
2021/01/19 10:10:54;;;;;;;3.03;2.00;;;;;;;2.35;53.17;96451.84;5090409;28;20400;-70
2021/01/19 10:13:26;;;;;;;2.60;1.70;;;;;;;2.52;53.07;96445.44;5092415;28;20044;-70
2021/01/19 10:16:02;;;;;;;3.65;1.80;;;;;;;2.80;52.77;96442.28;5092525;28;20414;-70
2021/01/19 10:18:29;;;;;;;3.88;1.80;;;;;;;2.98;52.34;96440.19;5093291;28;20032;-70
2021/01/19 10:20:55;;;;;;;2.38;1.70;;;;;;;3.29;52.67;96432.91;5091644;28;20055;-70
2021/01/19 10:23:29;;;;;;;4.50;1.88;;;;;;;3.58;51.79;96420.50;5092020;28;20239;-70
2021/01/19 10:26:05;;;;;;;4.75;2.08;;;;;;;3.87;51.66;96412.66;5091892;28;20045;-70
2021/01/19 10:28:38;;;;;;;4.03;2.10;;;;;;;4.03;50.04;96415.31;5092814;28;20074;-70
2021/01/19 10:31:15;;;;;;;5.70;2.20;;;;;;;4.26;50.02;96413.84;5091239;28;20540;-70
2021/01/19 10:33:52;;;;;;;5.95;2.15;;;;;;;4.50;49.76;96408.63;5092237;28;20051;-70
2021/01/19 10:36:18;;;;;;;3.70;2.22;;;;;;;4.76;48.64;96401.22;5092490;28;20044;-69
2021/01/19 10:38:45;;;;;;;4.18;2.05;;;;;;;4.90;48.18;96396.78;5091877;28;20044;-70
2021/01/19 10:41:11;;;;;;;4.20;2.38;;;;;;;5.10;48.59;96390.44;5092614;28;20040;-70
2021/01/19 10:43:38;;;;;;;2.97;2.05;;;;;;;5.09;48.05;96386.94;5091922;28;20047;-70
2021/01/19 10:46:04;;;;;;;4.85;2.45;;;;;;;5.22;49.62;96390.91;5092156;28;20043;-70
2021/01/19 10:48:30;;;;;;;5.60;2.25;;;;;;;5.27;46.45;96390.81;5091856;28;20560;-70
2021/01/19 10:50:56;;;;;;;5.47;2.45;;;;;;;5.19;47.43;96388.75;5092365;28;20043;-69
2021/01/19 10:53:27;;;;;;;4.03;2.42;;;;;;;5.07;46.79;96391.00;5091670;28;20044;-70
2021/01/19 10:55:53;;;;;;;3.90;2.38;;;;;;;5.03;47.44;96385.38;5091868;28;20079;-69
2021/01/19 10:58:20;;;;;;;8.32;2.30;;;;;;;5.04;46.74;96380.75;5092028;28;20064;-69
2021/01/19 11:00:46;;;;;;;5.72;2.55;;;;;;;4.97;47.69;96375.69;5087246;28;20044;-69
2021/01/19 11:03:12;;;;;;;5.43;2.97;;;;;;;4.93;48.71;96378.16;5071867;28;20048;-70
2021/01/19 11:05:38;;;;;;;5.18;2.35;;;;;;;4.93;49.05;96370.06;5071255;28;20048;-70
2021/01/19 11:08:04;;;;;;;5.57;2.67;;;;;;;5.03;48.90;96362.97;5071676;28;20120;-70
2021/01/19 11:10:31;;;;;;;5.78;2.50;;;;;;;4.98;48.27;96363.81;5085605;28;20066;-70
2021/01/19 11:12:58;;;;;;;5.93;2.92;;;;;;;5.00;48.11;96347.31;5092017;28;20130;-69
2021/01/19 11:15:24;;;;;;;6.25;2.53;;;;;;;4.83;47.71;96345.03;5091042;28;20039;-70
2021/01/19 11:17:52;;;;;;;6.55;2.95;;;;;;;4.70;48.17;96338.41;5091630;28;20055;-69
2021/01/19 11:20:19;;;;;;;4.80;2.50;;;;;;;4.60;48.74;96333.06;5091297;28;20051;-70
2021/01/19 11:22:48;;;;;;;4.43;2.60;;;;;;;4.52;49.31;96329.06;5091294;28;20052;-70
2021/01/19 11:25:15;;;;;;;5.05;2.42;;;;;;;4.34;49.57;96318.94;5091629;28;20624;-70
2021/01/19 11:27:41;;;;;;;3.10;1.98;;;;;;;4.36;50.57;96317.56;5090797;28;20082;-70
2021/01/19 11:30:08;;;;;;;5.50;2.72;;;;;;;4.39;49.81;96314.31;5091520;28;20506;-70
2021/01/19 11:32:35;;;;;;;4.43;2.25;;;;;;;4.32;49.80;96304.91;5071252;28;20041;-70
2021/01/19 11:35:02;;;;;;;3.75;2.22;;;;;;;4.35;50.88;96302.47;5071600;28;20045;-70
2021/01/19 11:37:28;;;;;;;3.45;2.42;;;;;;;4.06;49.84;96296.97;5050711;28;20119;-69
2021/01/19 11:39:54;;;;;;;4.03;2.30;;;;;;;4.16;50.70;96290.72;5051031;28;20049;-69
2021/01/19 11:42:20;;;;;;;4.47;2.28;;;;;;;4.22;51.58;96283.41;5050705;28;20072;-69
2021/01/19 11:44:46;;;;;;;3.80;2.08;;;;;;;4.24;51.19;96286.66;5050795;28;20060;-70
2021/01/19 11:47:12;;;;;;;4.30;2.45;;;;;;;4.20;50.90;96281.00;5050674;28;20563;-70